< < Back
Terminal Aerodrome Forecast


Current Version              Previous Versions:   1  2  3  4  5  6  7  8  9  

Terminal Aerodrome Forecast

681
FTUS42 KGSP 052320
TAFAND
TAF
KAND 052320Z 0600/0624 14007KT P6SM FEW250
     FM060600 06003KT P6SM FEW250
     FM061600 08007G12KT P6SM FEW250=

Latest METAR

050
SAUS70 KWBC 061700 RRD
MTRAND
METAR KAND 061656Z AUTO 07010KT 10SM CLR 27/13 A3020 RMK AO2 SLP219
T02720133


USA.gov is the U.S. government's official web portal to all federal, state and local government web resources and services.